Terminal Aerodrome Forecast
Issued by NWS Wilmington, NC

Home | Current Version | Previous Version | Text Only | Print | Product List | Glossary On
Versions: 1 2 3 4 5 6 7 8 9 10 11 12 13 14 15 16 17
000
FTUS42 KILM 012300
TAFLBT
TAF
KLBT 012327Z 0200/0224 01006KT P6SM VCSH SCT007 BKN020 OVC080
      TEMPO 0200/0202 2SM SHRA BR BKN006
     FM020400 VRB03KT P6SM VCSH OVC006
     FM020700 03003KT 4SM BR OVC006
      TEMPO 0208/0212 2SM BR OVC004
     FM021400 04006KT P6SM VCTS BKN016CB
     FM022200 02005KT P6SM SCT020 BKN120=

USA.gov is the U.S. government's official web portal to all federal, state and local government web resources and services.